createdAt,value
2022-08-24T00:00:39.115Z,98592.50
2022-08-24T00:03:09.314Z,98606.63
2022-08-24T00:05:38.197Z,98596.97
2022-08-24T00:08:05.845Z,98601.94
2022-08-24T00:10:33.274Z,98611.34
2022-08-24T00:13:01.315Z,98602.50
2022-08-24T00:15:28.971Z,98611.34
2022-08-24T00:17:57.474Z,98608.84
2022-08-24T00:20:26.450Z,98597.78
2022-08-24T00:22:54.492Z,98610.50
2022-08-24T00:25:22.534Z,98613.81
2022-08-24T00:27:50.649Z,98606.63
2022-08-24T00:30:19.624Z,98609.13
2022-08-24T00:32:47.661Z,98595.63
2022-08-24T00:35:15.306Z,98604.16
2022-08-24T00:37:42.754Z,98596.69
2022-08-24T00:40:13.861Z,98602.22
2022-08-24T00:42:41.841Z,98598.63
2022-08-24T00:45:11.878Z,98596.16
2022-08-24T00:47:47.922Z,98592.84
2022-08-24T00:50:26.963Z,98596.44
2022-08-24T00:52:58.016Z,98597.28
2022-08-24T00:55:35.042Z,98591.75
2022-08-24T00:58:17.958Z,98598.94
2022-08-24T01:00:51.151Z,98606.69
2022-08-24T01:03:19.179Z,98600.03
2022-08-24T01:05:48.131Z,98603.09
2022-08-24T01:08:39.015Z,98610.50
2022-08-24T01:14:24.580Z,98623.28
2022-08-24T01:17:33.080Z,98615.00
2022-08-24T01:20:23.595Z,98622.19
2022-08-24T01:23:15.500Z,98620.75
2022-08-24T01:25:44.222Z,98615.28
2022-08-24T01:28:14.612Z,98623.53
2022-08-24T01:30:43.644Z,98611.19
2022-08-24T01:33:11.700Z,98614.44
2022-08-24T01:35:39.768Z,98618.03
2022-08-24T01:38:10.792Z,98614.44
2022-08-24T01:40:41.831Z,98617.22
2022-08-24T01:43:09.857Z,98616.09
2022-08-24T01:45:39.897Z,98622.19
2022-08-24T01:48:07.946Z,98617.81
2022-08-24T01:50:35.988Z,98623.56
2022-08-24T01:53:05.938Z,98614.44
2022-08-24T01:55:34.076Z,98611.69
2022-08-24T01:58:02.103Z,98614.44
2022-08-24T02:00:31.148Z,98614.75
2022-08-24T02:02:59.311Z,98619.47
2022-08-24T02:05:27.231Z,98618.38
2022-08-24T02:07:55.290Z,98611.47
2022-08-24T02:10:23.330Z,98629.44
2022-08-24T02:12:59.419Z,98625.84
2022-08-24T02:15:32.415Z,98623.91
2022-08-24T02:18:00.475Z,98619.47
2022-08-24T02:20:27.939Z,98623.63
2022-08-24T02:22:55.561Z,98625.84
2022-08-24T02:25:23.596Z,98618.94
2022-08-24T02:27:51.632Z,98621.69
2022-08-24T02:30:19.687Z,98618.94
2022-08-24T02:32:47.728Z,98627.22
2022-08-24T02:35:15.525Z,98633.31
2022-08-24T02:37:43.955Z,98636.06
2022-08-24T02:40:11.933Z,98637.47
2022-08-24T02:42:39.883Z,98648.78
2022-08-24T02:45:08.142Z,98635.00
2022-08-24T02:47:38.941Z,98629.75
2022-08-24T02:50:08.475Z,98631.69
2022-08-24T02:52:43.066Z,98639.13
2022-08-24T02:55:13.097Z,98642.72
2022-08-24T02:57:41.157Z,98638.00
2022-08-24T03:00:11.194Z,98647.13
2022-08-24T03:02:39.322Z,98638.28
2022-08-24T03:05:07.504Z,98639.44
2022-08-24T03:07:35.350Z,98644.44
2022-08-24T03:10:03.364Z,98638.91
2022-08-24T03:12:31.399Z,98649.06
2022-08-24T03:14:59.456Z,98628.09
2022-08-24T03:17:27.504Z,98641.16
2022-08-24T03:19:56.525Z,98651.63
2022-08-24T03:22:23.767Z,98659.38
2022-08-24T03:24:51.627Z,98659.38
2022-08-24T03:27:19.651Z,98649.13
2022-08-24T03:29:47.350Z,98661.25
2022-08-24T03:32:18.722Z,98661.84
2022-08-24T03:34:46.610Z,98672.31
2022-08-24T03:37:14.034Z,98670.66
2022-08-24T03:39:41.884Z,98675.97
2022-08-24T03:42:09.744Z,98668.22
2022-08-24T03:44:37.974Z,98664.38
2022-08-24T03:47:06.004Z,98657.47
2022-08-24T03:49:34.900Z,98667.16
2022-08-24T03:52:03.090Z,98669.31
2022-08-24T03:54:31.137Z,98655.53
2022-08-24T03:57:00.299Z,98656.66
2022-08-24T03:59:28.235Z,98668.22
2022-08-24T04:01:57.299Z,98655.50
2022-08-24T04:04:25.410Z,98661.03
2022-08-24T04:06:53.341Z,98652.22
2022-08-24T04:09:21.238Z,98649.97
2022-08-24T04:11:48.673Z,98635.06
2022-08-24T04:14:27.143Z,98644.19
2022-08-24T04:16:57.751Z,98647.19
2022-08-24T04:19:26.587Z,98642.81
2022-08-24T04:21:54.604Z,98651.38
2022-08-24T04:24:22.668Z,98652.78
2022-08-24T04:26:50.712Z,98664.63
2022-08-24T04:29:26.435Z,98664.91
2022-08-24T04:31:58.474Z,98650.59
2022-08-24T04:34:26.746Z,98665.50
2022-08-24T04:36:54.805Z,98670.44
2022-08-24T04:39:22.456Z,98663.00
2022-08-24T04:41:51.103Z,98658.06
2022-08-24T04:44:18.931Z,98662.19
2022-08-24T04:46:46.960Z,98659.97
2022-08-24T04:49:15.007Z,98672.09
2022-08-24T04:51:43.074Z,98659.97
2022-08-24T04:54:12.091Z,98658.31
2022-08-24T04:56:40.151Z,98653.84
2022-08-24T04:59:08.172Z,98653.84
2022-08-24T05:01:36.221Z,98644.47
2022-08-24T05:04:04.274Z,98645.03
2022-08-24T05:06:33.293Z,98642.78
2022-08-24T05:09:01.346Z,98638.94
2022-08-24T05:11:30.377Z,98635.34
2022-08-24T05:13:58.009Z,98643.66
2022-08-24T05:16:26.527Z,98657.75
2022-08-24T05:18:55.451Z,98651.94
2022-08-24T05:21:23.551Z,98657.16
2022-08-24T05:23:51.606Z,98661.31
2022-08-24T05:26:25.500Z,98654.44
2022-08-24T05:29:00.697Z,98662.13
2022-08-24T05:31:30.829Z,98663.78
2022-08-24T05:33:59.777Z,98659.97
2022-08-24T05:36:30.653Z,98659.13
2022-08-24T05:38:58.797Z,98661.38
2022-08-24T05:41:26.913Z,98669.38
2022-08-24T05:43:54.525Z,98671.03
2022-08-24T05:46:22.039Z,98674.34
2022-08-24T05:48:53.187Z,98662.19
2022-08-24T05:51:22.070Z,98665.50
2022-08-24T05:53:50.108Z,98658.91
2022-08-24T05:56:18.162Z,98656.13
2022-08-24T05:58:46.220Z,98649.19
2022-08-24T06:01:17.488Z,98649.19
2022-08-24T06:03:46.291Z,98664.38
2022-08-24T06:06:14.349Z,98661.63
2022-08-24T06:08:44.372Z,98651.66
2022-08-24T06:11:12.438Z,98658.31
2022-08-24T06:13:40.454Z,98663.59
2022-08-24T06:16:27.682Z,98683.75
2022-08-24T06:18:55.562Z,98682.94
2022-08-24T06:21:25.593Z,98673.25
2022-08-24T06:23:55.733Z,98671.03
2022-08-24T06:26:41.695Z,98670.19
2022-08-24T06:29:09.737Z,98678.78
2022-08-24T06:31:40.094Z,98685.16
2022-08-24T06:34:12.824Z,98679.34
2022-08-24T06:36:40.879Z,98688.78
2022-08-24T06:39:10.231Z,98687.41
2022-08-24T06:41:38.970Z,98696.75
2022-08-24T06:44:08.036Z,98682.09
2022-08-24T06:46:37.074Z,98684.88
2022-08-24T06:49:06.088Z,98687.63
2022-08-24T06:51:33.538Z,98698.69
2022-08-24T06:54:01.166Z,98690.94
2022-08-24T06:56:29.029Z,98690.69
2022-08-24T06:58:57.258Z,98692.34
2022-08-24T07:01:26.256Z,98688.69
2022-08-24T07:03:53.771Z,98690.13
2022-08-24T07:06:22.410Z,98691.47
2022-08-24T07:08:50.439Z,98688.47
2022-08-24T07:11:18.484Z,98692.28
2022-08-24T07:13:48.525Z,98680.44
2022-08-24T07:16:17.604Z,98695.66
2022-08-24T07:18:49.329Z,98690.94
2022-08-24T07:21:20.504Z,98693.13
2022-08-24T07:23:50.695Z,98695.88
2022-08-24T07:26:23.268Z,98690.34
2022-08-24T07:28:52.814Z,98682.66
2022-08-24T07:31:22.859Z,98685.41
2022-08-24T07:33:50.702Z,98684.88
2022-08-24T07:36:22.096Z,98687.63
2022-08-24T07:38:53.080Z,98693.16
2022-08-24T07:41:56.233Z,98703.13
2022-08-24T07:44:10.047Z,98703.63
2022-08-24T07:46:39.173Z,98710.31
2022-08-24T07:49:28.063Z,98713.31
2022-08-24T07:51:56.198Z,98722.44
2022-08-24T07:54:23.878Z,98719.94
2022-08-24T07:56:51.306Z,98728.53
2022-08-24T07:59:19.326Z,98736.84
2022-08-24T08:01:47.445Z,98745.69
2022-08-24T08:04:16.418Z,98737.16
2022-08-24T08:06:44.522Z,98736.00
2022-08-24T08:09:12.520Z,98738.50
2022-08-24T08:11:40.552Z,98736.84
2022-08-24T08:14:08.590Z,98734.63
2022-08-24T08:16:36.649Z,98734.06
2022-08-24T08:19:10.472Z,98743.75
2022-08-24T08:22:04.214Z,98737.66
2022-08-24T08:24:31.783Z,98741.81
2022-08-24T08:26:59.818Z,98726.59
2022-08-24T08:29:28.874Z,98741.25
2022-08-24T08:31:56.924Z,98744.56
2022-08-24T08:34:24.438Z,98745.09
2022-08-24T08:36:51.996Z,98744.84
2022-08-24T08:39:21.056Z,98742.91
2022-08-24T08:41:53.089Z,98753.41
2022-08-24T08:44:44.137Z,98750.63
2022-08-24T08:47:31.115Z,98752.03
2022-08-24T08:50:09.538Z,98747.91
2022-08-24T08:52:59.372Z,98755.06
2022-08-24T08:55:38.356Z,98763.34
2022-08-24T08:58:16.391Z,98764.19
2022-08-24T09:01:08.498Z,98755.06
2022-08-24T09:03:43.513Z,98755.06
2022-08-24T09:06:23.534Z,98753.63
2022-08-24T09:09:23.172Z,98751.44
2022-08-24T09:12:08.670Z,98744.50
2022-08-24T09:14:48.727Z,98746.16
2022-08-24T09:17:37.778Z,98748.91
2022-08-24T09:20:25.289Z,98751.69
2022-08-24T09:23:10.886Z,98751.69
2022-08-24T09:25:52.933Z,98746.16
2022-08-24T09:29:06.011Z,98748.91
2022-08-24T09:31:53.057Z,98753.34
2022-08-24T09:34:26.847Z,98753.34
2022-08-24T09:37:07.131Z,98742.28
2022-08-24T09:39:59.083Z,98743.94
2022-08-24T09:42:45.246Z,98742.81
2022-08-24T09:45:34.166Z,98734.53
2022-08-24T09:48:27.181Z,98734.53
2022-08-24T09:51:32.394Z,98736.16
2022-08-24T09:54:07.452Z,98728.69
2022-08-24T09:56:37.501Z,98724.25
2022-08-24T09:59:12.545Z,98739.75
2022-08-24T10:01:48.592Z,98730.63
2022-08-24T10:04:34.477Z,98736.97
2022-08-24T10:07:26.720Z,98735.88
2022-08-24T10:10:04.833Z,98732.28
2022-08-24T10:13:10.828Z,98732.28
2022-08-24T10:15:58.888Z,98729.50
2022-08-24T10:18:45.924Z,98721.19
2022-08-24T10:21:15.011Z,98732.28
2022-08-24T10:23:56.029Z,98723.97
2022-08-24T10:26:33.078Z,98733.34
2022-08-24T10:29:12.132Z,98733.66
2022-08-24T10:31:40.228Z,98723.91
2022-08-24T10:34:25.846Z,98735.00
2022-08-24T10:37:03.312Z,98719.81
2022-08-24T10:40:38.391Z,98721.16
2022-08-24T10:43:30.388Z,98731.13
2022-08-24T10:46:35.433Z,98729.47
2022-08-24T10:49:12.480Z,98720.88
2022-08-24T10:52:20.541Z,98712.25
2022-08-24T10:54:48.583Z,98721.69
2022-08-24T10:57:17.626Z,98716.16
2022-08-24T11:00:22.543Z,98714.50
2022-08-24T11:02:51.725Z,98723.88
2022-08-24T11:05:30.242Z,98720.28
2022-08-24T11:08:00.393Z,98722.22
2022-08-24T11:10:33.870Z,98713.91
2022-08-24T11:13:25.850Z,98716.09
2022-08-24T11:15:58.985Z,98709.50
2022-08-24T11:18:28.032Z,98708.38
2022-08-24T11:20:55.800Z,98707.56
2022-08-24T11:23:25.554Z,98714.97
2022-08-24T11:26:20.155Z,98709.22
2022-08-24T11:28:55.047Z,98714.16
2022-08-24T11:31:35.599Z,98708.88
2022-08-24T11:34:09.308Z,98707.72
2022-08-24T11:36:38.341Z,98693.66
2022-08-24T11:39:21.669Z,98709.38
2022-08-24T11:41:59.813Z,98717.69
2022-08-24T11:44:55.094Z,98708.88
2022-08-24T11:47:40.569Z,98719.34
2022-08-24T11:50:20.605Z,98714.91
2022-08-24T11:53:01.659Z,98726.00
2022-08-24T11:55:45.403Z,98721.84
2022-08-24T11:58:17.749Z,98720.69
2022-08-24T12:00:48.793Z,98712.38
2022-08-24T12:03:24.556Z,98709.09
2022-08-24T12:06:19.895Z,98713.22
2022-08-24T12:09:00.929Z,98702.44
2022-08-24T12:11:37.542Z,98696.03
2022-08-24T12:14:24.685Z,98685.53
2022-08-24T12:17:08.092Z,98708.72
2022-08-24T12:19:37.076Z,98706.50
2022-08-24T12:22:07.177Z,98715.31
2022-08-24T12:24:59.229Z,98711.16
2022-08-24T12:27:31.271Z,98701.81
2022-08-24T12:30:06.317Z,98697.00
2022-08-24T12:32:42.372Z,98709.72
2022-08-24T12:35:25.246Z,98701.75
2022-08-24T12:38:09.467Z,98699.72
2022-08-24T12:40:42.505Z,98701.16
2022-08-24T12:43:13.564Z,98692.00
2022-08-24T12:45:42.611Z,98696.94
2022-08-24T12:48:22.668Z,98700.25
2022-08-24T12:50:53.709Z,98692.47
2022-08-24T12:53:42.752Z,98693.03
2022-08-24T12:56:56.838Z,98689.44
2022-08-24T12:59:33.581Z,98696.84
2022-08-24T13:02:16.954Z,98694.09
2022-08-24T13:04:45.956Z,98691.91
2022-08-24T13:07:20.017Z,98693.81
2022-08-24T13:10:03.422Z,98683.84
2022-08-24T13:12:40.088Z,98687.94
2022-08-24T13:15:29.003Z,98696.25
2022-08-24T13:18:23.208Z,98691.53
2022-08-24T13:20:55.772Z,98692.38
2022-08-24T13:23:24.301Z,98694.56
2022-08-24T13:26:19.368Z,98702.88
2022-08-24T13:28:48.399Z,98690.72
2022-08-24T13:31:29.105Z,98685.13
2022-08-24T13:34:11.499Z,98681.22
2022-08-24T13:36:57.541Z,98673.75
2022-08-24T13:39:33.511Z,98663.22
2022-08-24T13:42:04.647Z,98658.47
2022-08-24T13:45:10.703Z,98661.22
2022-08-24T13:47:47.738Z,98665.66
2022-08-24T13:50:28.796Z,98659.84
2022-08-24T13:53:15.875Z,98657.88
2022-08-24T13:55:45.341Z,98647.63
2022-08-24T13:58:43.371Z,98653.69
2022-08-24T14:01:49.078Z,98643.44
2022-08-24T14:04:45.087Z,98646.81
2022-08-24T14:07:51.661Z,98651.44
2022-08-24T14:10:53.688Z,98649.78
2022-08-24T14:13:29.241Z,98644.03
2022-08-24T14:16:21.399Z,98636.22
2022-08-24T14:19:06.225Z,98642.81
2022-08-24T14:21:59.982Z,98639.75
2022-08-24T14:24:45.734Z,98633.94
2022-08-24T14:27:49.525Z,98625.00
2022-08-24T14:30:28.920Z,98625.56
2022-08-24T14:33:04.133Z,98629.16
2022-08-24T14:35:37.657Z,98622.47
2022-08-24T14:38:23.202Z,98620.50
2022-08-24T14:41:03.575Z,98627.09
2022-08-24T14:43:32.796Z,98615.72
2022-08-24T14:46:12.925Z,98615.19
2022-08-24T14:48:58.318Z,98616.00
2022-08-24T14:51:55.943Z,98614.81
2022-08-24T14:54:24.018Z,98624.78
2022-08-24T14:56:56.897Z,98623.13
2022-08-24T14:59:40.286Z,98644.69
2022-08-24T15:02:33.186Z,98651.34
2022-08-24T15:05:25.888Z,98661.88
2022-08-24T15:07:59.388Z,98662.69
2022-08-24T15:10:58.481Z,98661.88
2022-08-24T15:13:48.381Z,98661.88
2022-08-24T15:16:36.140Z,98664.31
2022-08-24T15:19:12.326Z,98662.38
2022-08-24T15:22:09.547Z,98653.22
2022-08-24T15:24:48.611Z,98645.75
2022-08-24T15:27:41.319Z,98633.03
2022-08-24T15:30:18.733Z,98631.88
2022-08-24T15:32:49.385Z,98628.59
2022-08-24T15:35:30.240Z,98628.59
2022-08-24T15:37:58.388Z,98641.94
2022-08-24T15:40:31.008Z,98657.72
2022-08-24T15:43:01.726Z,98658.56
2022-08-24T15:45:32.895Z,98656.41
2022-08-24T15:48:01.057Z,98646.44
2022-08-24T15:50:43.128Z,98660.00
2022-08-24T15:53:34.037Z,98651.34
2022-08-24T15:56:22.236Z,98650.56
2022-08-24T15:58:50.258Z,98651.13
2022-08-24T16:01:36.432Z,98656.09
2022-08-24T16:04:12.211Z,98641.50
2022-08-24T16:06:42.430Z,98640.38
2022-08-24T16:09:15.472Z,98660.00
2022-08-24T16:11:47.520Z,98652.78
2022-08-24T16:14:47.054Z,98641.16
2022-08-24T16:17:23.628Z,98637.59
2022-08-24T16:19:52.676Z,98642.59
2022-08-24T16:22:42.732Z,98648.38
2022-08-24T16:25:35.073Z,98641.28
2022-08-24T16:28:12.841Z,98646.22
2022-08-24T16:30:47.005Z,98638.41
2022-08-24T16:33:47.949Z,98650.31
2022-08-24T16:36:18.996Z,98638.78
2022-08-24T16:38:49.593Z,98645.38
2022-08-24T16:41:22.095Z,98644.25
2022-08-24T16:43:50.184Z,98648.44
2022-08-24T16:46:23.390Z,98657.00
2022-08-24T16:48:51.233Z,98646.00
2022-08-24T16:51:20.587Z,98654.22
2022-08-24T16:53:48.358Z,98652.56
2022-08-24T16:56:16.962Z,98648.16
2022-08-24T16:58:46.444Z,98648.75
2022-08-24T17:01:15.545Z,98649.88
2022-08-24T17:03:44.534Z,98640.44
2022-08-24T17:06:13.577Z,98650.09
2022-08-24T17:08:41.627Z,98644.34
2022-08-24T17:11:11.082Z,98658.69
